sensor_id;sensor_type;location;lat;lon;timestamp;P1;durP1;ratioP1;P2;durP2;ratioP2
63688;SDS011;54895;40.928;14.480;2023-07-13T00:01:49;17.90;;;7.25;;
63688;SDS011;54895;40.928;14.480;2023-07-13T00:04:16;15.55;;;6.97;;
63688;SDS011;54895;40.928;14.480;2023-07-13T00:06:44;15.18;;;6.80;;
63688;SDS011;54895;40.928;14.480;2023-07-13T00:09:12;16.35;;;6.75;;
63688;SDS011;54895;40.928;14.480;2023-07-13T00:11:40;19.13;;;6.85;;
63688;SDS011;54895;40.928;14.480;2023-07-13T00:14:07;18.23;;;6.50;;
63688;SDS011;54895;40.928;14.480;2023-07-13T00:16:35;14.55;;;6.93;;
63688;SDS011;54895;40.928;14.480;2023-07-13T00:19:04;18.80;;;6.95;;
63688;SDS011;54895;40.928;14.480;2023-07-13T00:21:31;11.52;;;6.15;;
63688;SDS011;54895;40.928;14.480;2023-07-13T00:23:58;13.10;;;5.70;;
63688;SDS011;54895;40.928;14.480;2023-07-13T00:26:26;13.15;;;5.45;;
63688;SDS011;54895;40.928;14.480;2023-07-13T00:28:53;16.88;;;5.18;;
63688;SDS011;54895;40.928;14.480;2023-07-13T00:31:20;9.27;;;4.30;;
63688;SDS011;54895;40.928;14.480;2023-07-13T00:33:47;8.05;;;4.00;;
63688;SDS011;54895;40.928;14.480;2023-07-13T00:36:17;13.05;;;4.38;;
63688;SDS011;54895;40.928;14.480;2023-07-13T00:38:44;6.20;;;3.90;;
63688;SDS011;54895;40.928;14.480;2023-07-13T00:41:11;6.78;;;3.85;;
63688;SDS011;54895;40.928;14.480;2023-07-13T00:43:38;8.75;;;3.67;;
63688;SDS011;54895;40.928;14.480;2023-07-13T00:46:10;6.55;;;3.65;;
63688;SDS011;54895;40.928;14.480;2023-07-13T00:48:54;6.78;;;3.60;;
63688;SDS011;54895;40.928;14.480;2023-07-13T00:51:37;7.97;;;4.20;;
63688;SDS011;54895;40.928;14.480;2023-07-13T00:54:04;9.88;;;4.20;;
63688;SDS011;54895;40.928;14.480;2023-07-13T00:56:33;10.07;;;3.95;;
63688;SDS011;54895;40.928;14.480;2023-07-13T00:59:01;11.10;;;4.68;;
63688;SDS011;54895;40.928;14.480;2023-07-13T01:04:59;10.48;;;4.35;;
63688;SDS011;54895;40.928;14.480;2023-07-13T01:07:27;9.18;;;4.30;;
63688;SDS011;54895;40.928;14.480;2023-07-13T01:09:57;13.52;;;4.70;;
63688;SDS011;54895;40.928;14.480;2023-07-13T01:12:23;8.82;;;4.43;;
63688;SDS011;54895;40.928;14.480;2023-07-13T01:14:56;9.38;;;4.35;;
63688;SDS011;54895;40.928;14.480;2023-07-13T01:17:23;11.60;;;5.07;;
63688;SDS011;54895;40.928;14.480;2023-07-13T01:19:50;9.40;;;4.90;;
63688;SDS011;54895;40.928;14.480;2023-07-13T01:22:16;10.32;;;4.75;;
63688;SDS011;54895;40.928;14.480;2023-07-13T01:24:47;11.63;;;4.90;;
63688;SDS011;54895;40.928;14.480;2023-07-13T01:27:16;7.35;;;4.38;;
63688;SDS011;54895;40.928;14.480;2023-07-13T01:29:51;11.57;;;5.13;;
63688;SDS011;54895;40.928;14.480;2023-07-13T01:32:19;13.38;;;5.10;;
63688;SDS011;54895;40.928;14.480;2023-07-13T01:34:50;10.45;;;5.40;;
63688;SDS011;54895;40.928;14.480;2023-07-13T01:37:20;11.00;;;4.63;;
63688;SDS011;54895;40.928;14.480;2023-07-13T01:39:47;9.68;;;4.38;;
63688;SDS011;54895;40.928;14.480;2023-07-13T01:42:13;12.00;;;4.72;;
63688;SDS011;54895;40.928;14.480;2023-07-13T01:44:40;8.00;;;4.38;;
63688;SDS011;54895;40.928;14.480;2023-07-13T01:47:07;8.85;;;4.50;;
63688;SDS011;54895;40.928;14.480;2023-07-13T01:49:33;8.05;;;4.38;;
63688;SDS011;54895;40.928;14.480;2023-07-13T01:52:00;6.97;;;4.00;;
63688;SDS011;54895;40.928;14.480;2023-07-13T01:54:26;13.75;;;4.88;;
63688;SDS011;54895;40.928;14.480;2023-07-13T01:56:53;8.20;;;4.30;;
63688;SDS011;54895;40.928;14.480;2023-07-13T01:59:19;12.55;;;4.60;;
63688;SDS011;54895;40.928;14.480;2023-07-13T02:05:02;10.60;;;4.07;;
63688;SDS011;54895;40.928;14.480;2023-07-13T02:07:28;8.85;;;3.78;;
63688;SDS011;54895;40.928;14.480;2023-07-13T02:09:55;8.13;;;4.40;;
63688;SDS011;54895;40.928;14.480;2023-07-13T02:12:22;9.38;;;4.22;;
63688;SDS011;54895;40.928;14.480;2023-07-13T02:14:49;7.55;;;4.20;;
63688;SDS011;54895;40.928;14.480;2023-07-13T02:17:16;9.18;;;4.03;;
63688;SDS011;54895;40.928;14.480;2023-07-13T02:19:42;12.40;;;4.50;;
63688;SDS011;54895;40.928;14.480;2023-07-13T02:22:09;13.25;;;4.53;;
63688;SDS011;54895;40.928;14.480;2023-07-13T02:24:35;9.25;;;4.07;;
63688;SDS011;54895;40.928;14.480;2023-07-13T02:27:03;11.98;;;4.15;;
63688;SDS011;54895;40.928;14.480;2023-07-13T02:29:30;8.63;;;4.20;;
63688;SDS011;54895;40.928;14.480;2023-07-13T02:31:57;8.18;;;4.20;;
63688;SDS011;54895;40.928;14.480;2023-07-13T02:34:24;9.65;;;4.40;;
63688;SDS011;54895;40.928;14.480;2023-07-13T02:36:51;8.82;;;4.18;;
63688;SDS011;54895;40.928;14.480;2023-07-13T02:39:17;8.52;;;4.13;;
63688;SDS011;54895;40.928;14.480;2023-07-13T02:41:44;7.25;;;4.00;;
63688;SDS011;54895;40.928;14.480;2023-07-13T02:44:14;12.20;;;4.32;;
63688;SDS011;54895;40.928;14.480;2023-07-13T02:46:41;7.25;;;4.50;;
63688;SDS011;54895;40.928;14.480;2023-07-13T02:49:08;11.57;;;4.47;;
63688;SDS011;54895;40.928;14.480;2023-07-13T02:51:34;6.15;;;3.60;;
63688;SDS011;54895;40.928;14.480;2023-07-13T02:54:02;8.25;;;4.28;;
63688;SDS011;54895;40.928;14.480;2023-07-13T02:56:31;6.10;;;4.05;;
63688;SDS011;54895;40.928;14.480;2023-07-13T02:58:59;7.28;;;3.85;;
63688;SDS011;54895;40.928;14.480;2023-07-13T03:01:26;7.65;;;4.05;;
63688;SDS011;54895;40.928;14.480;2023-07-13T03:03:53;6.38;;;3.80;;
63688;SDS011;54895;40.928;14.480;2023-07-13T03:06:20;7.15;;;3.90;;
63688;SDS011;54895;40.928;14.480;2023-07-13T03:08:50;7.60;;;4.25;;
63688;SDS011;54895;40.928;14.480;2023-07-13T03:11:18;7.60;;;4.10;;
63688;SDS011;54895;40.928;14.480;2023-07-13T03:13:50;6.72;;;4.10;;
63688;SDS011;54895;40.928;14.480;2023-07-13T03:16:19;7.03;;;4.30;;
63688;SDS011;54895;40.928;14.480;2023-07-13T03:18:48;8.63;;;4.07;;
63688;SDS011;54895;40.928;14.480;2023-07-13T03:21:16;9.68;;;4.10;;
63688;SDS011;54895;40.928;14.480;2023-07-13T03:23:43;9.82;;;4.28;;
63688;SDS011;54895;40.928;14.480;2023-07-13T03:26:11;8.50;;;3.92;;
63688;SDS011;54895;40.928;14.480;2023-07-13T03:28:41;7.45;;;4.45;;
63688;SDS011;54895;40.928;14.480;2023-07-13T03:31:19;5.10;;;3.47;;
63688;SDS011;54895;40.928;14.480;2023-07-13T03:33:47;7.90;;;4.00;;
63688;SDS011;54895;40.928;14.480;2023-07-13T03:36:19;11.23;;;4.53;;
63688;SDS011;54895;40.928;14.480;2023-07-13T03:38:50;10.68;;;4.40;;
63688;SDS011;54895;40.928;14.480;2023-07-13T03:43:52;8.15;;;4.50;;
63688;SDS011;54895;40.928;14.480;2023-07-13T03:46:21;9.95;;;3.85;;
63688;SDS011;54895;40.928;14.480;2023-07-13T03:48:48;9.50;;;3.65;;
63688;SDS011;54895;40.928;14.480;2023-07-13T03:51:15;7.18;;;3.40;;
63688;SDS011;54895;40.928;14.480;2023-07-13T03:53:44;9.38;;;3.67;;
63688;SDS011;54895;40.928;14.480;2023-07-13T03:56:14;5.68;;;3.38;;
63688;SDS011;54895;40.928;14.480;2023-07-13T03:58:43;8.85;;;3.40;;
63688;SDS011;54895;40.928;14.480;2023-07-13T04:01:17;7.45;;;3.60;;
63688;SDS011;54895;40.928;14.480;2023-07-13T04:03:45;7.80;;;3.47;;
63688;SDS011;54895;40.928;14.480;2023-07-13T04:06:20;11.15;;;3.35;;
63688;SDS011;54895;40.928;14.480;2023-07-13T04:08:54;5.85;;;3.20;;
63688;SDS011;54895;40.928;14.480;2023-07-13T04:11:23;11.90;;;3.47;;
63688;SDS011;54895;40.928;14.480;2023-07-13T04:13:52;6.38;;;3.38;;
63688;SDS011;54895;40.928;14.480;2023-07-13T04:16:20;7.10;;;3.20;;
63688;SDS011;54895;40.928;14.480;2023-07-13T04:18:47;8.82;;;3.00;;
63688;SDS011;54895;40.928;14.480;2023-07-13T04:21:15;15.05;;;4.32;;
63688;SDS011;54895;40.928;14.480;2023-07-13T04:23:43;16.52;;;5.28;;
63688;SDS011;54895;40.928;14.480;2023-07-13T04:26:10;11.68;;;4.03;;
63688;SDS011;54895;40.928;14.480;2023-07-13T04:28:37;16.35;;;4.20;;
63688;SDS011;54895;40.928;14.480;2023-07-13T04:31:04;10.52;;;3.95;;
63688;SDS011;54895;40.928;14.480;2023-07-13T04:33:31;19.33;;;4.68;;
63688;SDS011;54895;40.928;14.480;2023-07-13T04:35:57;34.05;;;6.15;;
63688;SDS011;54895;40.928;14.480;2023-07-13T04:38:26;23.95;;;5.05;;
63688;SDS011;54895;40.928;14.480;2023-07-13T04:40:59;16.30;;;4.57;;
63688;SDS011;54895;40.928;14.480;2023-07-13T04:43:27;12.95;;;4.30;;
63688;SDS011;54895;40.928;14.480;2023-07-13T04:45:55;9.73;;;4.10;;
63688;SDS011;54895;40.928;14.480;2023-07-13T04:48:22;13.05;;;4.28;;
63688;SDS011;54895;40.928;14.480;2023-07-13T04:50:56;11.85;;;3.65;;
63688;SDS011;54895;40.928;14.480;2023-07-13T04:53:24;10.00;;;3.75;;
63688;SDS011;54895;40.928;14.480;2023-07-13T04:55:51;9.32;;;3.85;;
63688;SDS011;54895;40.928;14.480;2023-07-13T04:58:18;13.52;;;4.18;;
63688;SDS011;54895;40.928;14.480;2023-07-13T05:00:45;13.98;;;3.75;;
63688;SDS011;54895;40.928;14.480;2023-07-13T05:03:12;9.90;;;3.63;;
63688;SDS011;54895;40.928;14.480;2023-07-13T05:05:38;8.27;;;3.50;;
63688;SDS011;54895;40.928;14.480;2023-07-13T05:08:04;10.93;;;3.50;;
63688;SDS011;54895;40.928;14.480;2023-07-13T05:10:31;10.63;;;3.60;;
63688;SDS011;54895;40.928;14.480;2023-07-13T05:12:57;12.85;;;4.03;;
63688;SDS011;54895;40.928;14.480;2023-07-13T05:15:23;13.15;;;4.35;;
63688;SDS011;54895;40.928;14.480;2023-07-13T05:17:51;14.38;;;4.10;;
63688;SDS011;54895;40.928;14.480;2023-07-13T05:20:17;13.27;;;4.65;;
63688;SDS011;54895;40.928;14.480;2023-07-13T05:22:45;15.82;;;4.82;;
63688;SDS011;54895;40.928;14.480;2023-07-13T05:25:14;22.05;;;5.10;;
63688;SDS011;54895;40.928;14.480;2023-07-13T05:27:40;17.17;;;5.45;;
63688;SDS011;54895;40.928;14.480;2023-07-13T05:30:07;15.15;;;5.20;;
63688;SDS011;54895;40.928;14.480;2023-07-13T05:32:39;14.20;;;5.03;;
63688;SDS011;54895;40.928;14.480;2023-07-13T05:35:05;18.27;;;5.57;;
63688;SDS011;54895;40.928;14.480;2023-07-13T05:37:32;15.77;;;5.05;;
63688;SDS011;54895;40.928;14.480;2023-07-13T05:39:58;13.77;;;5.10;;
63688;SDS011;54895;40.928;14.480;2023-07-13T05:42:25;14.60;;;5.07;;
63688;SDS011;54895;40.928;14.480;2023-07-13T05:44:51;15.45;;;4.82;;
63688;SDS011;54895;40.928;14.480;2023-07-13T05:47:17;15.15;;;5.43;;
63688;SDS011;54895;40.928;14.480;2023-07-13T05:49:43;18.63;;;5.72;;
63688;SDS011;54895;40.928;14.480;2023-07-13T05:52:10;22.77;;;5.55;;
63688;SDS011;54895;40.928;14.480;2023-07-13T05:54:36;14.95;;;4.85;;
63688;SDS011;54895;40.928;14.480;2023-07-13T05:57:02;11.88;;;5.25;;
63688;SDS011;54895;40.928;14.480;2023-07-13T05:59:28;15.82;;;4.97;;
63688;SDS011;54895;40.928;14.480;2023-07-13T06:05:34;21.42;;;6.82;;
63688;SDS011;54895;40.928;14.480;2023-07-13T06:08:03;20.83;;;6.10;;
63688;SDS011;54895;40.928;14.480;2023-07-13T06:10:34;14.48;;;5.43;;
63688;SDS011;54895;40.928;14.480;2023-07-13T06:13:01;16.55;;;6.10;;
63688;SDS011;54895;40.928;14.480;2023-07-13T06:15:29;18.27;;;5.85;;
63688;SDS011;54895;40.928;14.480;2023-07-13T06:17:55;16.10;;;6.10;;
63688;SDS011;54895;40.928;14.480;2023-07-13T06:20:22;18.50;;;5.68;;
63688;SDS011;54895;40.928;14.480;2023-07-13T06:22:49;14.93;;;5.47;;
63688;SDS011;54895;40.928;14.480;2023-07-13T06:25:15;16.40;;;5.60;;
63688;SDS011;54895;40.928;14.480;2023-07-13T06:27:43;18.77;;;6.07;;
63688;SDS011;54895;40.928;14.480;2023-07-13T06:30:10;18.23;;;5.82;;
63688;SDS011;54895;40.928;14.480;2023-07-13T06:32:38;19.85;;;6.28;;
63688;SDS011;54895;40.928;14.480;2023-07-13T06:35:04;24.50;;;6.43;;
63688;SDS011;54895;40.928;14.480;2023-07-13T06:37:32;32.78;;;7.35;;
63688;SDS011;54895;40.928;14.480;2023-07-13T06:39:59;28.27;;;6.85;;
63688;SDS011;54895;40.928;14.480;2023-07-13T06:42:25;29.15;;;6.82;;
63688;SDS011;54895;40.928;14.480;2023-07-13T06:44:52;25.55;;;6.97;;
63688;SDS011;54895;40.928;14.480;2023-07-13T06:47:19;34.42;;;7.38;;
63688;SDS011;54895;40.928;14.480;2023-07-13T06:49:45;20.83;;;6.88;;
63688;SDS011;54895;40.928;14.480;2023-07-13T06:52:12;23.58;;;6.43;;
63688;SDS011;54895;40.928;14.480;2023-07-13T06:54:39;24.75;;;6.82;;
63688;SDS011;54895;40.928;14.480;2023-07-13T06:57:06;15.68;;;6.57;;
63688;SDS011;54895;40.928;14.480;2023-07-13T06:59:33;16.33;;;5.32;;
63688;SDS011;54895;40.928;14.480;2023-07-13T07:06:16;23.70;;;6.03;;
63688;SDS011;54895;40.928;14.480;2023-07-13T07:08:45;27.00;;;6.40;;
63688;SDS011;54895;40.928;14.480;2023-07-13T07:11:13;23.88;;;5.97;;
63688;SDS011;54895;40.928;14.480;2023-07-13T07:13:40;20.73;;;5.82;;
63688;SDS011;54895;40.928;14.480;2023-07-13T07:16:06;22.73;;;5.75;;
63688;SDS011;54895;40.928;14.480;2023-07-13T07:18:34;33.08;;;6.63;;
63688;SDS011;54895;40.928;14.480;2023-07-13T07:21:01;22.60;;;6.07;;
63688;SDS011;54895;40.928;14.480;2023-07-13T07:23:27;25.15;;;5.93;;
63688;SDS011;54895;40.928;14.480;2023-07-13T07:25:53;19.15;;;5.22;;
63688;SDS011;54895;40.928;14.480;2023-07-13T07:28:20;16.70;;;4.50;;
63688;SDS011;54895;40.928;14.480;2023-07-13T07:30:46;14.52;;;4.38;;
63688;SDS011;54895;40.928;14.480;2023-07-13T07:33:13;13.73;;;4.35;;
63688;SDS011;54895;40.928;14.480;2023-07-13T07:35:40;14.45;;;4.15;;
63688;SDS011;54895;40.928;14.480;2023-07-13T07:38:06;14.80;;;4.45;;
63688;SDS011;54895;40.928;14.480;2023-07-13T07:40:38;12.18;;;4.85;;
63688;SDS011;54895;40.928;14.480;2023-07-13T07:43:06;11.35;;;4.15;;
63688;SDS011;54895;40.928;14.480;2023-07-13T07:45:34;22.17;;;4.47;;
63688;SDS011;54895;40.928;14.480;2023-07-13T07:48:00;8.23;;;3.83;;
63688;SDS011;54895;40.928;14.480;2023-07-13T07:50:27;7.63;;;3.47;;
63688;SDS011;54895;40.928;14.480;2023-07-13T07:52:54;10.65;;;3.45;;
63688;SDS011;54895;40.928;14.480;2023-07-13T07:55:22;13.27;;;3.40;;
63688;SDS011;54895;40.928;14.480;2023-07-13T07:57:49;14.70;;;4.15;;
63688;SDS011;54895;40.928;14.480;2023-07-13T08:00:15;15.27;;;3.92;;
63688;SDS011;54895;40.928;14.480;2023-07-13T08:05:52;8.73;;;3.47;;
63688;SDS011;54895;40.928;14.480;2023-07-13T08:08:19;9.05;;;3.63;;
63688;SDS011;54895;40.928;14.480;2023-07-13T08:10:45;12.13;;;3.53;;
63688;SDS011;54895;40.928;14.480;2023-07-13T08:13:12;9.57;;;3.60;;
63688;SDS011;54895;40.928;14.480;2023-07-13T08:15:38;14.77;;;3.50;;
63688;SDS011;54895;40.928;14.480;2023-07-13T08:18:06;12.18;;;4.00;;
63688;SDS011;54895;40.928;14.480;2023-07-13T08:20:40;11.15;;;3.72;;
63688;SDS011;54895;40.928;14.480;2023-07-13T08:23:07;10.05;;;4.38;;
63688;SDS011;54895;40.928;14.480;2023-07-13T08:25:36;10.80;;;3.72;;
63688;SDS011;54895;40.928;14.480;2023-07-13T08:28:03;9.65;;;4.25;;
63688;SDS011;54895;40.928;14.480;2023-07-13T08:30:30;9.80;;;4.57;;
63688;SDS011;54895;40.928;14.480;2023-07-13T08:32:57;12.15;;;4.25;;
63688;SDS011;54895;40.928;14.480;2023-07-13T08:35:23;11.48;;;3.85;;
63688;SDS011;54895;40.928;14.480;2023-07-13T08:37:52;7.05;;;3.30;;
63688;SDS011;54895;40.928;14.480;2023-07-13T08:40:19;8.98;;;3.70;;
63688;SDS011;54895;40.928;14.480;2023-07-13T08:42:54;9.75;;;3.10;;
63688;SDS011;54895;40.928;14.480;2023-07-13T08:48:13;8.00;;;3.33;;
63688;SDS011;54895;40.928;14.480;2023-07-13T08:53:29;7.82;;;3.22;;
63688;SDS011;54895;40.928;14.480;2023-07-13T08:56:02;11.63;;;3.70;;
63688;SDS011;54895;40.928;14.480;2023-07-13T08:58:30;9.52;;;3.50;;
63688;SDS011;54895;40.928;14.480;2023-07-13T09:03:54;11.15;;;3.67;;
63688;SDS011;54895;40.928;14.480;2023-07-13T09:06:30;7.97;;;3.35;;
63688;SDS011;54895;40.928;14.480;2023-07-13T09:09:10;11.00;;;3.55;;
63688;SDS011;54895;40.928;14.480;2023-07-13T09:17:02;12.85;;;3.78;;
63688;SDS011;54895;40.928;14.480;2023-07-13T09:19:31;12.68;;;3.17;;
63688;SDS011;54895;40.928;14.480;2023-07-13T09:22:02;9.55;;;3.65;;
63688;SDS011;54895;40.928;14.480;2023-07-13T09:27:03;10.52;;;3.80;;
63688;SDS011;54895;40.928;14.480;2023-07-13T09:29:41;5.43;;;2.40;;
63688;SDS011;54895;40.928;14.480;2023-07-13T09:32:10;4.57;;;2.45;;
63688;SDS011;54895;40.928;14.480;2023-07-13T09:34:49;5.20;;;2.42;;
63688;SDS011;54895;40.928;14.480;2023-07-13T09:37:18;3.70;;;2.35;;
63688;SDS011;54895;40.928;14.480;2023-07-13T09:39:47;6.05;;;2.25;;
63688;SDS011;54895;40.928;14.480;2023-07-13T09:42:20;7.80;;;2.30;;
63688;SDS011;54895;40.928;14.480;2023-07-13T09:47:23;3.88;;;2.28;;
63688;SDS011;54895;40.928;14.480;2023-07-13T09:50:02;4.03;;;2.50;;
63688;SDS011;54895;40.928;14.480;2023-07-13T09:52:41;5.80;;;2.15;;
63688;SDS011;54895;40.928;14.480;2023-07-13T09:55:26;5.38;;;2.38;;
63688;SDS011;54895;40.928;14.480;2023-07-13T09:57:57;5.00;;;2.03;;
63688;SDS011;54895;40.928;14.480;2023-07-13T10:00:25;5.50;;;2.20;;
63688;SDS011;54895;40.928;14.480;2023-07-13T10:03:01;4.07;;;2.40;;
63688;SDS011;54895;40.928;14.480;2023-07-13T10:05:39;6.00;;;2.33;;
63688;SDS011;54895;40.928;14.480;2023-07-13T10:08:17;4.05;;;2.40;;
63688;SDS011;54895;40.928;14.480;2023-07-13T10:10:57;4.50;;;2.10;;
63688;SDS011;54895;40.928;14.480;2023-07-13T10:13:35;5.05;;;2.17;;
63688;SDS011;54895;40.928;14.480;2023-07-13T10:16:04;9.13;;;2.70;;
63688;SDS011;54895;40.928;14.480;2023-07-13T10:18:47;3.17;;;1.92;;
63688;SDS011;54895;40.928;14.480;2023-07-13T10:21:20;3.67;;;2.00;;
63688;SDS011;54895;40.928;14.480;2023-07-13T10:23:54;4.00;;;2.10;;
63688;SDS011;54895;40.928;14.480;2023-07-13T10:26:29;4.90;;;2.20;;
63688;SDS011;54895;40.928;14.480;2023-07-13T10:29:00;3.58;;;1.83;;
63688;SDS011;54895;40.928;14.480;2023-07-13T10:31:34;3.90;;;1.90;;
63688;SDS011;54895;40.928;14.480;2023-07-13T10:34:02;3.92;;;1.60;;
63688;SDS011;54895;40.928;14.480;2023-07-13T10:36:37;3.25;;;1.90;;
63688;SDS011;54895;40.928;14.480;2023-07-13T10:39:07;7.32;;;2.40;;
63688;SDS011;54895;40.928;14.480;2023-07-13T10:41:42;3.00;;;1.95;;
63688;SDS011;54895;40.928;14.480;2023-07-13T10:44:21;4.80;;;2.28;;
63688;SDS011;54895;40.928;14.480;2023-07-13T10:46:58;3.92;;;2.00;;
63688;SDS011;54895;40.928;14.480;2023-07-13T10:49:27;2.75;;;2.10;;
63688;SDS011;54895;40.928;14.480;2023-07-13T10:51:57;4.53;;;1.80;;
63688;SDS011;54895;40.928;14.480;2023-07-13T10:54:28;2.50;;;1.85;;
63688;SDS011;54895;40.928;14.480;2023-07-13T10:59:47;3.10;;;1.83;;
63688;SDS011;54895;40.928;14.480;2023-07-13T11:02:35;6.93;;;2.35;;
63688;SDS011;54895;40.928;14.480;2023-07-13T11:05:13;3.80;;;2.03;;
63688;SDS011;54895;40.928;14.480;2023-07-13T11:07:54;3.50;;;2.00;;
63688;SDS011;54895;40.928;14.480;2023-07-13T11:16:12;4.03;;;2.20;;
63688;SDS011;54895;40.928;14.480;2023-07-13T11:18:40;5.18;;;2.00;;
63688;SDS011;54895;40.928;14.480;2023-07-13T11:21:25;3.80;;;2.13;;
63688;SDS011;54895;40.928;14.480;2023-07-13T11:24:00;5.93;;;2.30;;
63688;SDS011;54895;40.928;14.480;2023-07-13T11:31:53;6.70;;;2.25;;
63688;SDS011;54895;40.928;14.480;2023-07-13T11:34:43;3.45;;;1.92;;
63688;SDS011;54895;40.928;14.480;2023-07-13T11:37:10;4.40;;;2.20;;
63688;SDS011;54895;40.928;14.480;2023-07-13T11:39:42;4.20;;;2.47;;
63688;SDS011;54895;40.928;14.480;2023-07-13T11:42:15;5.15;;;2.40;;
63688;SDS011;54895;40.928;14.480;2023-07-13T11:44:46;3.88;;;2.33;;
63688;SDS011;54895;40.928;14.480;2023-07-13T11:47:17;3.58;;;2.67;;
63688;SDS011;54895;40.928;14.480;2023-07-13T11:49:50;4.18;;;2.60;;
63688;SDS011;54895;40.928;14.480;2023-07-13T11:52:32;4.68;;;2.25;;
63688;SDS011;54895;40.928;14.480;2023-07-13T11:55:04;4.85;;;2.40;;
63688;SDS011;54895;40.928;14.480;2023-07-13T11:58:00;6.03;;;2.35;;
63688;SDS011;54895;40.928;14.480;2023-07-13T12:00:29;8.13;;;2.10;;
63688;SDS011;54895;40.928;14.480;2023-07-13T12:02:59;4.13;;;2.45;;
63688;SDS011;54895;40.928;14.480;2023-07-13T12:05:28;4.20;;;2.45;;
63688;SDS011;54895;40.928;14.480;2023-07-13T12:07:57;5.20;;;2.35;;
63688;SDS011;54895;40.928;14.480;2023-07-13T12:10:25;5.10;;;2.08;;
63688;SDS011;54895;40.928;14.480;2023-07-13T12:13:01;4.57;;;2.40;;
63688;SDS011;54895;40.928;14.480;2023-07-13T12:15:33;4.18;;;2.30;;
63688;SDS011;54895;40.928;14.480;2023-07-13T12:18:17;4.55;;;2.40;;
63688;SDS011;54895;40.928;14.480;2023-07-13T12:23:23;5.45;;;2.30;;
63688;SDS011;54895;40.928;14.480;2023-07-13T12:25:51;2.72;;;1.90;;
63688;SDS011;54895;40.928;14.480;2023-07-13T12:28:22;5.95;;;2.35;;
63688;SDS011;54895;40.928;14.480;2023-07-13T12:31:01;5.32;;;1.92;;
63688;SDS011;54895;40.928;14.480;2023-07-13T12:33:30;3.25;;;1.90;;
63688;SDS011;54895;40.928;14.480;2023-07-13T12:36:00;4.85;;;1.85;;
63688;SDS011;54895;40.928;14.480;2023-07-13T12:38:29;6.75;;;2.30;;
63688;SDS011;54895;40.928;14.480;2023-07-13T12:40:57;2.72;;;1.70;;
63688;SDS011;54895;40.928;14.480;2023-07-13T12:43:25;4.15;;;2.15;;
63688;SDS011;54895;40.928;14.480;2023-07-13T12:45:57;3.10;;;1.85;;
63688;SDS011;54895;40.928;14.480;2023-07-13T12:48:27;3.50;;;2.10;;
63688;SDS011;54895;40.928;14.480;2023-07-13T12:50:55;4.97;;;1.85;;
63688;SDS011;54895;40.928;14.480;2023-07-13T12:53:23;3.38;;;1.40;;
63688;SDS011;54895;40.928;14.480;2023-07-13T12:56:01;4.20;;;1.98;;
63688;SDS011;54895;40.928;14.480;2023-07-13T12:58:36;3.03;;;1.88;;
63688;SDS011;54895;40.928;14.480;2023-07-13T13:01:05;7.60;;;2.10;;
63688;SDS011;54895;40.928;14.480;2023-07-13T13:06:25;3.28;;;2.00;;
63688;SDS011;54895;40.928;14.480;2023-07-13T13:08:54;4.57;;;2.17;;
63688;SDS011;54895;40.928;14.480;2023-07-13T13:11:22;5.05;;;2.10;;
63688;SDS011;54895;40.928;14.480;2023-07-13T13:13:50;5.15;;;1.85;;
63688;SDS011;54895;40.928;14.480;2023-07-13T13:18:42;3.42;;;2.03;;
63688;SDS011;54895;40.928;14.480;2023-07-13T13:21:09;3.10;;;1.80;;
63688;SDS011;54895;40.928;14.480;2023-07-13T13:23:36;7.15;;;2.10;;
63688;SDS011;54895;40.928;14.480;2023-07-13T13:26:03;3.85;;;2.00;;
63688;SDS011;54895;40.928;14.480;2023-07-13T13:28:31;4.75;;;2.13;;
63688;SDS011;54895;40.928;14.480;2023-07-13T13:30:58;4.40;;;1.77;;
63688;SDS011;54895;40.928;14.480;2023-07-13T13:33:24;4.07;;;2.03;;
63688;SDS011;54895;40.928;14.480;2023-07-13T13:35:50;4.95;;;2.00;;
63688;SDS011;54895;40.928;14.480;2023-07-13T13:38:18;4.35;;;2.22;;
63688;SDS011;54895;40.928;14.480;2023-07-13T13:40:46;3.05;;;2.10;;
63688;SDS011;54895;40.928;14.480;2023-07-13T13:43:21;3.92;;;1.90;;
63688;SDS011;54895;40.928;14.480;2023-07-13T13:45:52;2.55;;;1.70;;
63688;SDS011;54895;40.928;14.480;2023-07-13T13:48:23;4.72;;;2.20;;
63688;SDS011;54895;40.928;14.480;2023-07-13T13:51:06;4.20;;;2.10;;
63688;SDS011;54895;40.928;14.480;2023-07-13T13:53:39;3.55;;;2.22;;
63688;SDS011;54895;40.928;14.480;2023-07-13T13:56:05;2.78;;;2.20;;
63688;SDS011;54895;40.928;14.480;2023-07-13T13:58:31;5.22;;;2.20;;
63688;SDS011;54895;40.928;14.480;2023-07-13T14:00:58;4.50;;;2.15;;
63688;SDS011;54895;40.928;14.480;2023-07-13T14:06:29;6.18;;;2.53;;
63688;SDS011;54895;40.928;14.480;2023-07-13T14:08:56;5.25;;;2.05;;
63688;SDS011;54895;40.928;14.480;2023-07-13T14:11:23;5.07;;;1.98;;
63688;SDS011;54895;40.928;14.480;2023-07-13T14:13:52;5.20;;;2.17;;
63688;SDS011;54895;40.928;14.480;2023-07-13T14:16:22;4.13;;;1.85;;
63688;SDS011;54895;40.928;14.480;2023-07-13T14:18:54;4.00;;;2.22;;
63688;SDS011;54895;40.928;14.480;2023-07-13T14:21:24;6.47;;;2.15;;
63688;SDS011;54895;40.928;14.480;2023-07-13T14:23:51;5.20;;;2.00;;
63688;SDS011;54895;40.928;14.480;2023-07-13T14:26:19;5.70;;;2.20;;
63688;SDS011;54895;40.928;14.480;2023-07-13T14:28:48;3.38;;;2.20;;
63688;SDS011;54895;40.928;14.480;2023-07-13T14:31:17;3.85;;;2.22;;
63688;SDS011;54895;40.928;14.480;2023-07-13T14:33:44;5.20;;;2.10;;
63688;SDS011;54895;40.928;14.480;2023-07-13T14:36:21;3.35;;;2.17;;
63688;SDS011;54895;40.928;14.480;2023-07-13T14:38:53;4.95;;;2.25;;
63688;SDS011;54895;40.928;14.480;2023-07-13T14:41:20;3.60;;;1.90;;
63688;SDS011;54895;40.928;14.480;2023-07-13T14:43:47;3.33;;;2.08;;
63688;SDS011;54895;40.928;14.480;2023-07-13T14:46:28;4.40;;;2.10;;
63688;SDS011;54895;40.928;14.480;2023-07-13T14:49:01;5.68;;;2.13;;
63688;SDS011;54895;40.928;14.480;2023-07-13T14:51:30;3.63;;;1.95;;
63688;SDS011;54895;40.928;14.480;2023-07-13T14:54:02;6.35;;;2.40;;
63688;SDS011;54895;40.928;14.480;2023-07-13T14:56:30;5.20;;;2.53;;
63688;SDS011;54895;40.928;14.480;2023-07-13T14:58:57;4.95;;;2.35;;
63688;SDS011;54895;40.928;14.480;2023-07-13T15:01:24;5.80;;;2.10;;
63688;SDS011;54895;40.928;14.480;2023-07-13T15:03:52;3.08;;;2.08;;
63688;SDS011;54895;40.928;14.480;2023-07-13T15:06:19;4.88;;;1.98;;
63688;SDS011;54895;40.928;14.480;2023-07-13T15:08:46;6.05;;;2.47;;
63688;SDS011;54895;40.928;14.480;2023-07-13T15:11:12;3.97;;;2.05;;
63688;SDS011;54895;40.928;14.480;2023-07-13T15:13:39;7.15;;;2.20;;
63688;SDS011;54895;40.928;14.480;2023-07-13T15:16:18;5.63;;;2.67;;
63688;SDS011;54895;40.928;14.480;2023-07-13T15:18:49;3.70;;;2.10;;
63688;SDS011;54895;40.928;14.480;2023-07-13T15:21:19;4.28;;;1.90;;
63688;SDS011;54895;40.928;14.480;2023-07-13T15:23:49;5.90;;;1.95;;
63688;SDS011;54895;40.928;14.480;2023-07-13T15:26:18;5.43;;;2.00;;
63688;SDS011;54895;40.928;14.480;2023-07-13T15:28:46;4.90;;;2.20;;
63688;SDS011;54895;40.928;14.480;2023-07-13T15:31:23;3.50;;;2.00;;
63688;SDS011;54895;40.928;14.480;2023-07-13T15:33:53;3.33;;;2.22;;
63688;SDS011;54895;40.928;14.480;2023-07-13T15:36:21;3.75;;;2.05;;
63688;SDS011;54895;40.928;14.480;2023-07-13T15:38:50;5.45;;;2.17;;
63688;SDS011;54895;40.928;14.480;2023-07-13T15:41:21;3.25;;;2.20;;
63688;SDS011;54895;40.928;14.480;2023-07-13T15:43:51;6.57;;;2.80;;
63688;SDS011;54895;40.928;14.480;2023-07-13T15:46:20;4.47;;;2.08;;
63688;SDS011;54895;40.928;14.480;2023-07-13T15:48:48;4.60;;;2.55;;